sensor_id;sensor_type;location;lat;lon;timestamp;noise_LAeq;noise_LA_min;noise_LA_max;noise_LA01;noise_LA95
64642;Laerm;59936;51.490;5.436;2022-07-29T00:00:07;38.84;35.21;43.19;;
64642;Laerm;59936;51.490;5.436;2022-07-29T00:00:14;38.80;36.23;41.65;;
64642;Laerm;59936;51.490;5.436;2022-07-29T00:00:19;39.25;36.48;41.77;;
64642;Laerm;59936;51.490;5.436;2022-07-29T00:00:25;38.66;36.40;40.36;;
64642;Laerm;59936;51.490;5.436;2022-07-29T00:00:30;39.76;37.03;42.27;;
64642;Laerm;59936;51.490;5.436;2022-07-29T00:00:36;41.85;39.59;44.33;;
64642;Laerm;59936;51.490;5.436;2022-07-29T00:00:41;40.10;36.24;44.82;;
64642;Laerm;59936;51.490;5.436;2022-07-29T00:00:49;38.95;36.94;42.40;;
64642;Laerm;59936;51.490;5.436;2022-07-29T00:00:55;38.20;36.39;40.21;;
64642;Laerm;59936;51.490;5.436;2022-07-29T00:01:00;38.38;35.87;40.28;;
64642;Laerm;59936;51.490;5.436;2022-07-29T00:01:06;38.80;36.04;41.07;;
64642;Laerm;59936;51.490;5.436;2022-07-29T00:01:15;39.26;36.15;44.13;;
64642;Laerm;59936;51.490;5.436;2022-07-29T00:01:20;39.07;36.20;42.59;;
64642;Laerm;59936;51.490;5.436;2022-07-29T00:01:26;38.23;35.88;40.34;;
64642;Laerm;59936;51.490;5.436;2022-07-29T00:01:31;40.36;36.95;44.05;;
64642;Laerm;59936;51.490;5.436;2022-07-29T00:01:37;39.74;37.21;42.25;;
64642;Laerm;59936;51.490;5.436;2022-07-29T00:01:42;38.94;36.76;40.72;;
64642;Laerm;59936;51.490;5.436;2022-07-29T00:01:48;37.79;35.48;39.43;;
64642;Laerm;59936;51.490;5.436;2022-07-29T00:01:54;37.23;34.78;39.18;;
64642;Laerm;59936;51.490;5.436;2022-07-29T00:01:59;37.20;35.17;39.09;;
64642;Laerm;59936;51.490;5.436;2022-07-29T00:02:04;37.20;35.46;38.72;;
64642;Laerm;59936;51.490;5.436;2022-07-29T00:02:10;37.82;35.71;40.18;;
64642;Laerm;59936;51.490;5.436;2022-07-29T00:02:15;38.06;36.32;39.73;;
64642;Laerm;59936;51.490;5.436;2022-07-29T00:02:20;38.01;36.13;40.19;;
64642;Laerm;59936;51.490;5.436;2022-07-29T00:02:27;38.56;35.56;40.88;;
64642;Laerm;59936;51.490;5.436;2022-07-29T00:02:33;38.63;36.64;40.89;;
64642;Laerm;59936;51.490;5.436;2022-07-29T00:02:38;40.79;36.74;44.16;;
64642;Laerm;59936;51.490;5.436;2022-07-29T00:02:43;37.48;35.51;39.14;;
64642;Laerm;59936;51.490;5.436;2022-07-29T00:02:49;41.07;35.06;59.51;;
64642;Laerm;59936;51.490;5.436;2022-07-29T00:02:54;37.59;36.00;39.26;;
64642;Laerm;59936;51.490;5.436;2022-07-29T00:02:59;39.76;35.84;52.66;;
64642;Laerm;59936;51.490;5.436;2022-07-29T00:03:05;37.21;34.59;38.88;;
64642;Laerm;59936;51.490;5.436;2022-07-29T00:03:11;37.38;35.04;39.01;;
64642;Laerm;59936;51.490;5.436;2022-07-29T00:03:17;37.47;34.53;40.54;;
64642;Laerm;59936;51.490;5.436;2022-07-29T00:03:22;41.18;38.63;44.57;;
64642;Laerm;59936;51.490;5.436;2022-07-29T00:03:27;37.58;35.44;40.88;;
64642;Laerm;59936;51.490;5.436;2022-07-29T00:03:33;36.82;34.83;38.33;;
64642;Laerm;59936;51.490;5.436;2022-07-29T00:03:38;36.57;34.85;39.06;;
64642;Laerm;59936;51.490;5.436;2022-07-29T00:03:43;36.99;34.04;39.75;;
64642;Laerm;59936;51.490;5.436;2022-07-29T00:03:49;38.33;35.25;43.75;;
64642;Laerm;59936;51.490;5.436;2022-07-29T00:03:54;39.73;34.64;42.76;;
64642;Laerm;59936;51.490;5.436;2022-07-29T00:04:00;40.48;36.68;44.41;;
64642;Laerm;59936;51.490;5.436;2022-07-29T00:04:05;39.04;36.64;41.49;;
64642;Laerm;59936;51.490;5.436;2022-07-29T00:04:11;38.25;35.14;40.90;;
64642;Laerm;59936;51.490;5.436;2022-07-29T00:04:16;35.69;33.96;37.16;;
64642;Laerm;59936;51.490;5.436;2022-07-29T00:04:22;36.45;34.82;38.13;;
64642;Laerm;59936;51.490;5.436;2022-07-29T00:04:27;37.23;35.20;39.07;;
64642;Laerm;59936;51.490;5.436;2022-07-29T00:04:35;36.87;34.86;39.11;;
64642;Laerm;59936;51.490;5.436;2022-07-29T00:04:41;38.23;34.93;42.09;;
64642;Laerm;59936;51.490;5.436;2022-07-29T00:04:46;38.75;35.69;43.24;;
64642;Laerm;59936;51.490;5.436;2022-07-29T00:04:51;37.23;34.96;39.03;;
64642;Laerm;59936;51.490;5.436;2022-07-29T00:04:58;38.51;36.28;41.39;;
64642;Laerm;59936;51.490;5.436;2022-07-29T00:05:04;37.47;35.39;39.67;;
64642;Laerm;59936;51.490;5.436;2022-07-29T00:05:10;37.93;35.20;40.24;;
64642;Laerm;59936;51.490;5.436;2022-07-29T00:05:18;37.50;35.19;40.58;;
64642;Laerm;59936;51.490;5.436;2022-07-29T00:05:23;36.89;34.49;38.59;;
64642;Laerm;59936;51.490;5.436;2022-07-29T00:05:29;37.08;34.76;40.56;;
64642;Laerm;59936;51.490;5.436;2022-07-29T00:05:34;37.34;35.13;39.98;;
64642;Laerm;59936;51.490;5.436;2022-07-29T00:05:41;37.71;35.49;41.40;;
64642;Laerm;59936;51.490;5.436;2022-07-29T00:05:46;39.03;35.69;42.78;;
64642;Laerm;59936;51.490;5.436;2022-07-29T00:05:52;37.37;34.37;40.80;;
64642;Laerm;59936;51.490;5.436;2022-07-29T00:05:58;37.46;35.19;40.23;;
64642;Laerm;59936;51.490;5.436;2022-07-29T00:06:03;38.14;36.03;40.43;;
64642;Laerm;59936;51.490;5.436;2022-07-29T00:06:09;36.66;34.96;38.52;;
64642;Laerm;59936;51.490;5.436;2022-07-29T00:06:15;35.95;34.50;37.97;;
64642;Laerm;59936;51.490;5.436;2022-07-29T00:06:20;37.13;35.17;39.13;;
64642;Laerm;59936;51.490;5.436;2022-07-29T00:06:26;37.44;35.34;39.96;;
64642;Laerm;59936;51.490;5.436;2022-07-29T00:06:31;38.55;35.18;42.79;;
64642;Laerm;59936;51.490;5.436;2022-07-29T00:06:36;39.51;36.17;52.06;;
64642;Laerm;59936;51.490;5.436;2022-07-29T00:06:42;40.82;38.25;43.59;;
64642;Laerm;59936;51.490;5.436;2022-07-29T00:06:47;39.83;37.16;42.21;;
64642;Laerm;59936;51.490;5.436;2022-07-29T00:06:53;38.97;36.05;43.76;;
64642;Laerm;59936;51.490;5.436;2022-07-29T00:06:58;39.31;36.58;42.88;;
64642;Laerm;59936;51.490;5.436;2022-07-29T00:07:04;37.71;35.75;41.34;;
64642;Laerm;59936;51.490;5.436;2022-07-29T00:07:09;37.96;34.94;40.88;;
64642;Laerm;59936;51.490;5.436;2022-07-29T00:07:15;35.76;33.61;37.92;;
64642;Laerm;59936;51.490;5.436;2022-07-29T00:07:20;35.31;33.79;37.24;;
64642;Laerm;59936;51.490;5.436;2022-07-29T00:07:26;34.58;33.17;36.00;;
64642;Laerm;59936;51.490;5.436;2022-07-29T00:07:31;34.45;32.89;35.68;;
64642;Laerm;59936;51.490;5.436;2022-07-29T00:07:37;35.29;33.03;37.50;;
64642;Laerm;59936;51.490;5.436;2022-07-29T00:07:42;35.08;32.59;38.48;;
64642;Laerm;59936;51.490;5.436;2022-07-29T00:07:47;34.72;32.85;36.72;;
64642;Laerm;59936;51.490;5.436;2022-07-29T00:07:53;36.03;33.70;38.73;;
64642;Laerm;59936;51.490;5.436;2022-07-29T00:07:58;36.42;34.02;38.71;;
64642;Laerm;59936;51.490;5.436;2022-07-29T00:08:04;37.66;35.52;39.81;;
64642;Laerm;59936;51.490;5.436;2022-07-29T00:08:09;39.40;36.58;42.35;;
64642;Laerm;59936;51.490;5.436;2022-07-29T00:08:14;37.77;35.55;40.17;;
64642;Laerm;59936;51.490;5.436;2022-07-29T00:08:20;35.27;32.74;37.82;;
64642;Laerm;59936;51.490;5.436;2022-07-29T00:08:26;35.79;33.77;37.60;;
64642;Laerm;59936;51.490;5.436;2022-07-29T00:08:31;35.39;33.24;37.41;;
64642;Laerm;59936;51.490;5.436;2022-07-29T00:08:36;36.95;33.59;39.28;;
64642;Laerm;59936;51.490;5.436;2022-07-29T00:08:42;36.57;34.36;39.32;;
64642;Laerm;59936;51.490;5.436;2022-07-29T00:08:47;37.96;35.75;40.20;;
64642;Laerm;59936;51.490;5.436;2022-07-29T00:08:52;38.53;36.42;40.55;;
64642;Laerm;59936;51.490;5.436;2022-07-29T00:08:58;38.08;36.08;40.66;;
64642;Laerm;59936;51.490;5.436;2022-07-29T00:09:03;38.26;36.49;40.41;;
64642;Laerm;59936;51.490;5.436;2022-07-29T00:09:09;38.39;35.88;40.57;;
64642;Laerm;59936;51.490;5.436;2022-07-29T00:09:14;38.41;35.76;41.00;;
64642;Laerm;59936;51.490;5.436;2022-07-29T00:09:19;37.95;33.98;40.89;;
64642;Laerm;59936;51.490;5.436;2022-07-29T00:09:25;37.77;35.35;40.04;;
64642;Laerm;59936;51.490;5.436;2022-07-29T00:09:31;35.94;33.54;37.67;;
64642;Laerm;59936;51.490;5.436;2022-07-29T00:09:37;35.82;33.72;38.57;;
64642;Laerm;59936;51.490;5.436;2022-07-29T00:09:43;37.36;35.53;40.35;;
64642;Laerm;59936;51.490;5.436;2022-07-29T00:09:48;35.64;33.72;38.37;;
64642;Laerm;59936;51.490;5.436;2022-07-29T00:09:54;35.23;33.06;36.99;;
64642;Laerm;59936;51.490;5.436;2022-07-29T00:09:59;34.37;32.52;35.89;;
64642;Laerm;59936;51.490;5.436;2022-07-29T00:10:05;34.68;32.93;36.52;;
64642;Laerm;59936;51.490;5.436;2022-07-29T00:10:10;35.36;33.57;37.56;;
64642;Laerm;59936;51.490;5.436;2022-07-29T00:10:15;35.77;33.78;38.54;;
64642;Laerm;59936;51.490;5.436;2022-07-29T00:10:21;35.97;34.09;38.35;;
64642;Laerm;59936;51.490;5.436;2022-07-29T00:10:26;36.76;34.94;38.53;;
64642;Laerm;59936;51.490;5.436;2022-07-29T00:10:32;37.97;35.91;39.59;;
64642;Laerm;59936;51.490;5.436;2022-07-29T00:10:38;37.45;35.57;39.67;;
64642;Laerm;59936;51.490;5.436;2022-07-29T00:10:43;38.67;35.84;41.59;;
64642;Laerm;59936;51.490;5.436;2022-07-29T00:10:49;38.44;36.06;40.94;;
64642;Laerm;59936;51.490;5.436;2022-07-29T00:10:54;36.40;34.72;38.28;;
64642;Laerm;59936;51.490;5.436;2022-07-29T00:11:00;38.49;35.08;41.93;;
64642;Laerm;59936;51.490;5.436;2022-07-29T00:11:05;36.85;34.68;38.61;;
64642;Laerm;59936;51.490;5.436;2022-07-29T00:11:10;37.55;34.96;39.36;;
64642;Laerm;59936;51.490;5.436;2022-07-29T00:11:16;38.03;36.46;40.01;;
64642;Laerm;59936;51.490;5.436;2022-07-29T00:11:21;39.84;37.40;44.94;;
64642;Laerm;59936;51.490;5.436;2022-07-29T00:11:26;39.78;36.47;43.04;;
64642;Laerm;59936;51.490;5.436;2022-07-29T00:11:32;39.06;36.29;42.01;;
64642;Laerm;59936;51.490;5.436;2022-07-29T00:11:38;39.50;35.80;43.57;;
64642;Laerm;59936;51.490;5.436;2022-07-29T00:11:43;38.58;36.52;40.66;;
64642;Laerm;59936;51.490;5.436;2022-07-29T00:11:48;38.90;36.95;40.85;;
64642;Laerm;59936;51.490;5.436;2022-07-29T00:11:59;38.98;36.34;41.76;;
64642;Laerm;59936;51.490;5.436;2022-07-29T00:12:05;39.62;37.83;42.50;;
64642;Laerm;59936;51.490;5.436;2022-07-29T00:12:10;39.15;36.12;42.06;;
64642;Laerm;59936;51.490;5.436;2022-07-29T00:12:16;37.51;35.55;39.03;;
64642;Laerm;59936;51.490;5.436;2022-07-29T00:12:24;39.68;36.20;42.79;;
64642;Laerm;59936;51.490;5.436;2022-07-29T00:12:30;38.88;36.11;40.94;;
64642;Laerm;59936;51.490;5.436;2022-07-29T00:12:36;38.84;36.81;41.31;;
64642;Laerm;59936;51.490;5.436;2022-07-29T00:12:41;36.86;34.05;41.33;;
64642;Laerm;59936;51.490;5.436;2022-07-29T00:12:46;37.35;35.64;39.28;;
64642;Laerm;59936;51.490;5.436;2022-07-29T00:12:52;37.74;35.70;39.65;;
64642;Laerm;59936;51.490;5.436;2022-07-29T00:12:57;38.09;35.31;40.16;;
64642;Laerm;59936;51.490;5.436;2022-07-29T00:13:03;37.68;35.53;39.99;;
64642;Laerm;59936;51.490;5.436;2022-07-29T00:13:08;39.83;37.14;43.39;;
64642;Laerm;59936;51.490;5.436;2022-07-29T00:13:14;40.05;36.38;44.31;;
64642;Laerm;59936;51.490;5.436;2022-07-29T00:13:19;39.71;36.61;43.54;;
64642;Laerm;59936;51.490;5.436;2022-07-29T00:13:24;38.74;36.26;42.58;;
64642;Laerm;59936;51.490;5.436;2022-07-29T00:13:30;37.19;34.82;38.99;;
64642;Laerm;59936;51.490;5.436;2022-07-29T00:13:35;37.43;35.84;39.33;;
64642;Laerm;59936;51.490;5.436;2022-07-29T00:13:40;38.38;36.09;40.98;;
64642;Laerm;59936;51.490;5.436;2022-07-29T00:13:46;40.75;37.91;44.70;;
64642;Laerm;59936;51.490;5.436;2022-07-29T00:13:51;42.40;39.31;45.25;;
64642;Laerm;59936;51.490;5.436;2022-07-29T00:13:56;40.79;38.10;42.78;;
64642;Laerm;59936;51.490;5.436;2022-07-29T00:14:02;40.84;37.02;46.96;;
64642;Laerm;59936;51.490;5.436;2022-07-29T00:14:08;37.23;35.03;45.37;;
64642;Laerm;59936;51.490;5.436;2022-07-29T00:14:13;36.28;34.42;38.49;;
64642;Laerm;59936;51.490;5.436;2022-07-29T00:14:19;37.24;35.03;39.53;;
64642;Laerm;59936;51.490;5.436;2022-07-29T00:14:24;36.98;34.54;39.11;;
64642;Laerm;59936;51.490;5.436;2022-07-29T00:14:30;36.53;33.92;39.08;;
64642;Laerm;59936;51.490;5.436;2022-07-29T00:14:35;36.57;33.81;39.34;;
64642;Laerm;59936;51.490;5.436;2022-07-29T00:14:40;38.82;35.66;43.10;;
64642;Laerm;59936;51.490;5.436;2022-07-29T00:14:46;37.99;36.21;40.39;;
64642;Laerm;59936;51.490;5.436;2022-07-29T00:14:53;38.03;36.18;39.57;;
64642;Laerm;59936;51.490;5.436;2022-07-29T00:14:59;38.71;35.62;41.04;;
64642;Laerm;59936;51.490;5.436;2022-07-29T00:15:05;38.82;36.48;41.48;;
64642;Laerm;59936;51.490;5.436;2022-07-29T00:15:11;37.77;35.48;40.87;;
64642;Laerm;59936;51.490;5.436;2022-07-29T00:15:16;38.41;35.85;42.22;;
64642;Laerm;59936;51.490;5.436;2022-07-29T00:15:21;36.97;35.44;38.93;;
64642;Laerm;59936;51.490;5.436;2022-07-29T00:15:28;36.87;35.14;38.66;;
64642;Laerm;59936;51.490;5.436;2022-07-29T00:15:33;36.11;33.60;38.08;;
64642;Laerm;59936;51.490;5.436;2022-07-29T00:15:39;37.00;35.45;38.72;;
64642;Laerm;59936;51.490;5.436;2022-07-29T00:15:44;37.63;35.36;40.72;;
64642;Laerm;59936;51.490;5.436;2022-07-29T00:15:49;35.63;33.99;37.63;;
64642;Laerm;59936;51.490;5.436;2022-07-29T00:15:55;35.13;33.38;37.05;;
64642;Laerm;59936;51.490;5.436;2022-07-29T00:16:00;35.56;33.90;37.28;;
64642;Laerm;59936;51.490;5.436;2022-07-29T00:16:05;35.74;33.78;38.61;;
64642;Laerm;59936;51.490;5.436;2022-07-29T00:16:11;35.73;33.87;37.65;;
64642;Laerm;59936;51.490;5.436;2022-07-29T00:16:16;35.08;33.47;37.12;;
64642;Laerm;59936;51.490;5.436;2022-07-29T00:16:22;35.88;33.36;37.46;;
64642;Laerm;59936;51.490;5.436;2022-07-29T00:16:28;36.17;34.01;38.12;;
64642;Laerm;59936;51.490;5.436;2022-07-29T00:16:33;37.65;34.89;41.68;;
64642;Laerm;59936;51.490;5.436;2022-07-29T00:16:39;36.76;34.04;39.17;;
64642;Laerm;59936;51.490;5.436;2022-07-29T00:16:45;36.19;33.28;40.46;;
64642;Laerm;59936;51.490;5.436;2022-07-29T00:16:50;35.33;33.48;39.03;;
64642;Laerm;59936;51.490;5.436;2022-07-29T00:16:55;36.99;33.85;39.30;;
64642;Laerm;59936;51.490;5.436;2022-07-29T00:17:01;37.16;35.42;39.01;;
64642;Laerm;59936;51.490;5.436;2022-07-29T00:17:06;35.78;33.99;37.42;;
64642;Laerm;59936;51.490;5.436;2022-07-29T00:17:11;35.30;33.82;36.97;;
64642;Laerm;59936;51.490;5.436;2022-07-29T00:17:17;35.63;33.79;37.54;;
64642;Laerm;59936;51.490;5.436;2022-07-29T00:17:24;35.56;33.59;37.21;;
64642;Laerm;59936;51.490;5.436;2022-07-29T00:17:30;36.82;34.05;39.87;;
64642;Laerm;59936;51.490;5.436;2022-07-29T00:17:35;36.20;34.56;40.25;;
64642;Laerm;59936;51.490;5.436;2022-07-29T00:17:40;35.31;32.96;37.15;;
64642;Laerm;59936;51.490;5.436;2022-07-29T00:17:46;35.20;33.13;36.94;;
64642;Laerm;59936;51.490;5.436;2022-07-29T00:17:51;35.82;34.34;37.29;;
64642;Laerm;59936;51.490;5.436;2022-07-29T00:17:56;35.81;33.84;37.89;;
64642;Laerm;59936;51.490;5.436;2022-07-29T00:18:03;36.48;34.28;39.19;;
64642;Laerm;59936;51.490;5.436;2022-07-29T00:18:08;36.66;34.47;40.21;;
64642;Laerm;59936;51.490;5.436;2022-07-29T00:18:13;36.48;33.86;43.72;;
64642;Laerm;59936;51.490;5.436;2022-07-29T00:18:19;35.45;33.41;37.63;;
64642;Laerm;59936;51.490;5.436;2022-07-29T00:18:24;35.74;33.41;38.37;;
64642;Laerm;59936;51.490;5.436;2022-07-29T00:18:29;36.33;33.61;39.93;;
64642;Laerm;59936;51.490;5.436;2022-07-29T00:18:35;35.22;33.79;36.77;;
64642;Laerm;59936;51.490;5.436;2022-07-29T00:18:40;36.64;33.41;48.02;;
64642;Laerm;59936;51.490;5.436;2022-07-29T00:18:45;35.31;33.35;37.84;;
64642;Laerm;59936;51.490;5.436;2022-07-29T00:18:51;36.46;34.73;37.92;;
64642;Laerm;59936;51.490;5.436;2022-07-29T00:18:57;37.30;34.87;39.53;;
64642;Laerm;59936;51.490;5.436;2022-07-29T00:19:04;36.37;33.75;38.41;;
64642;Laerm;59936;51.490;5.436;2022-07-29T00:19:09;37.84;34.48;41.58;;
64642;Laerm;59936;51.490;5.436;2022-07-29T00:19:15;36.94;34.14;39.53;;
64642;Laerm;59936;51.490;5.436;2022-07-29T00:19:20;39.24;36.41;42.60;;
64642;Laerm;59936;51.490;5.436;2022-07-29T00:19:25;38.86;36.65;41.29;;
64642;Laerm;59936;51.490;5.436;2022-07-29T00:19:30;37.65;35.94;39.43;;
64642;Laerm;59936;51.490;5.436;2022-07-29T00:19:36;36.48;33.05;40.07;;
64642;Laerm;59936;51.490;5.436;2022-07-29T00:19:41;36.16;33.87;40.77;;
64642;Laerm;59936;51.490;5.436;2022-07-29T00:19:47;36.75;34.68;38.72;;
64642;Laerm;59936;51.490;5.436;2022-07-29T00:19:52;35.99;34.38;37.48;;
64642;Laerm;59936;51.490;5.436;2022-07-29T00:19:57;36.16;34.34;38.34;;
64642;Laerm;59936;51.490;5.436;2022-07-29T00:20:04;36.27;33.93;39.64;;
64642;Laerm;59936;51.490;5.436;2022-07-29T00:20:10;36.62;34.49;38.57;;
64642;Laerm;59936;51.490;5.436;2022-07-29T00:20:15;39.69;35.60;43.11;;
64642;Laerm;59936;51.490;5.436;2022-07-29T00:20:21;40.19;36.44;46.33;;
64642;Laerm;59936;51.490;5.436;2022-07-29T00:20:26;39.21;36.49;42.58;;
64642;Laerm;59936;51.490;5.436;2022-07-29T00:20:32;40.01;37.23;42.72;;
64642;Laerm;59936;51.490;5.436;2022-07-29T00:20:37;41.37;37.16;46.31;;
64642;Laerm;59936;51.490;5.436;2022-07-29T00:20:43;43.48;40.38;49.11;;
64642;Laerm;59936;51.490;5.436;2022-07-29T00:20:48;41.73;38.58;45.66;;
64642;Laerm;59936;51.490;5.436;2022-07-29T00:20:54;41.97;38.62;45.09;;
64642;Laerm;59936;51.490;5.436;2022-07-29T00:20:59;39.30;36.87;41.81;;
64642;Laerm;59936;51.490;5.436;2022-07-29T00:21:05;38.91;36.27;41.32;;
64642;Laerm;59936;51.490;5.436;2022-07-29T00:21:10;39.91;36.59;44.18;;
64642;Laerm;59936;51.490;5.436;2022-07-29T00:21:15;38.67;36.00;41.89;;
64642;Laerm;59936;51.490;5.436;2022-07-29T00:21:21;40.67;37.38;43.60;;
64642;Laerm;59936;51.490;5.436;2022-07-29T00:21:26;40.17;37.28;42.27;;
64642;Laerm;59936;51.490;5.436;2022-07-29T00:21:31;39.05;36.58;41.32;;
64642;Laerm;59936;51.490;5.436;2022-07-29T00:21:37;38.74;35.62;42.20;;
64642;Laerm;59936;51.490;5.436;2022-07-29T00:21:42;37.34;35.67;44.88;;
64642;Laerm;59936;51.490;5.436;2022-07-29T00:21:48;38.12;35.68;40.78;;
64642;Laerm;59936;51.490;5.436;2022-07-29T00:21:53;36.73;34.77;38.94;;
64642;Laerm;59936;51.490;5.436;2022-07-29T00:21:58;36.78;34.72;38.29;;
64642;Laerm;59936;51.490;5.436;2022-07-29T00:22:04;36.91;34.83;39.36;;
64642;Laerm;59936;51.490;5.436;2022-07-29T00:22:09;37.09;35.26;38.71;;
64642;Laerm;59936;51.490;5.436;2022-07-29T00:22:14;36.70;34.69;38.53;;
64642;Laerm;59936;51.490;5.436;2022-07-29T00:22:20;37.19;35.43;38.79;;
64642;Laerm;59936;51.490;5.436;2022-07-29T00:22:25;38.19;36.22;40.18;;
64642;Laerm;59936;51.490;5.436;2022-07-29T00:22:31;38.80;35.87;41.07;;
64642;Laerm;59936;51.490;5.436;2022-07-29T00:22:38;38.12;35.75;39.95;;
64642;Laerm;59936;51.490;5.436;2022-07-29T00:22:43;38.66;35.73;40.52;;
64642;Laerm;59936;51.490;5.436;2022-07-29T00:22:49;38.70;36.82;40.96;;
64642;Laerm;59936;51.490;5.436;2022-07-29T00:22:54;39.41;37.30;41.79;;
64642;Laerm;59936;51.490;5.436;2022-07-29T00:22:59;38.56;36.32;42.36;;
64642;Laerm;59936;51.490;5.436;2022-07-29T00:23:05;37.58;35.67;39.64;;
64642;Laerm;59936;51.490;5.436;2022-07-29T00:23:10;37.11;35.47;38.28;;
64642;Laerm;59936;51.490;5.436;2022-07-29T00:23:16;37.80;35.56;39.25;;
64642;Laerm;59936;51.490;5.436;2022-07-29T00:23:21;37.69;35.44;40.07;;
64642;Laerm;59936;51.490;5.436;2022-07-29T00:23:26;38.84;37.02;40.66;;
64642;Laerm;59936;51.490;5.436;2022-07-29T00:23:32;38.58;35.32;41.49;;
64642;Laerm;59936;51.490;5.436;2022-07-29T00:23:37;37.51;35.34;39.33;;
64642;Laerm;59936;51.490;5.436;2022-07-29T00:23:42;37.02;35.29;39.31;;
64642;Laerm;59936;51.490;5.436;2022-07-29T00:23:48;37.27;35.68;39.13;;
64642;Laerm;59936;51.490;5.436;2022-07-29T00:23:53;36.90;35.17;38.69;;
64642;Laerm;59936;51.490;5.436;2022-07-29T00:23:59;37.01;34.66;39.42;;
64642;Laerm;59936;51.490;5.436;2022-07-29T00:24:04;37.11;34.67;41.54;;
64642;Laerm;59936;51.490;5.436;2022-07-29T00:24:09;37.23;35.43;39.61;;
64642;Laerm;59936;51.490;5.436;2022-07-29T00:24:15;36.96;35.06;39.35;;
64642;Laerm;59936;51.490;5.436;2022-07-29T00:24:20;38.49;36.45;41.86;;
64642;Laerm;59936;51.490;5.436;2022-07-29T00:24:26;40.43;37.93;42.34;;
64642;Laerm;59936;51.490;5.436;2022-07-29T00:24:31;40.19;37.73;42.42;;
64642;Laerm;59936;51.490;5.436;2022-07-29T00:24:37;39.73;37.61;43.23;;
64642;Laerm;59936;51.490;5.436;2022-07-29T00:24:42;40.76;37.51;44.54;;
64642;Laerm;59936;51.490;5.436;2022-07-29T00:24:48;41.21;38.23;43.69;;
64642;Laerm;59936;51.490;5.436;2022-07-29T00:24:54;41.02;37.77;43.66;;
64642;Laerm;59936;51.490;5.436;2022-07-29T00:24:59;40.41;38.10;42.62;;
64642;Laerm;59936;51.490;5.436;2022-07-29T00:25:05;41.12;39.02;44.23;;
64642;Laerm;59936;51.490;5.436;2022-07-29T00:25:12;40.32;37.55;42.38;;
64642;Laerm;59936;51.490;5.436;2022-07-29T00:25:18;39.52;36.51;41.93;;
64642;Laerm;59936;51.490;5.436;2022-07-29T00:25:24;39.05;36.33;41.87;;
64642;Laerm;59936;51.490;5.436;2022-07-29T00:25:29;38.56;35.56;41.21;;
64642;Laerm;59936;51.490;5.436;2022-07-29T00:25:34;37.70;34.83;39.93;;
64642;Laerm;59936;51.490;5.436;2022-07-29T00:25:40;45.96;37.12;64.75;;
64642;Laerm;59936;51.490;5.436;2022-07-29T00:25:45;37.93;35.89;40.32;;
64642;Laerm;59936;51.490;5.436;2022-07-29T00:25:51;39.32;36.83;41.61;;
64642;Laerm;59936;51.490;5.436;2022-07-29T00:25:56;38.82;36.98;40.97;;
64642;Laerm;59936;51.490;5.436;2022-07-29T00:26:02;38.00;35.10;40.98;;
64642;Laerm;59936;51.490;5.436;2022-07-29T00:26:07;36.83;34.81;38.39;;
64642;Laerm;59936;51.490;5.436;2022-07-29T00:26:13;36.94;35.32;39.50;;
64642;Laerm;59936;51.490;5.436;2022-07-29T00:26:18;37.36;35.36;39.15;;
64642;Laerm;59936;51.490;5.436;2022-07-29T00:26:23;36.55;34.20;38.33;;
64642;Laerm;59936;51.490;5.436;2022-07-29T00:26:29;36.59;34.92;38.02;;
64642;Laerm;59936;51.490;5.436;2022-07-29T00:26:36;36.34;34.37;38.30;;
64642;Laerm;59936;51.490;5.436;2022-07-29T00:26:42;36.25;33.93;38.76;;
64642;Laerm;59936;51.490;5.436;2022-07-29T00:26:47;36.61;34.43;38.33;;
64642;Laerm;59936;51.490;5.436;2022-07-29T00:26:52;36.20;34.71;37.39;;
64642;Laerm;59936;51.490;5.436;2022-07-29T00:26:58;35.65;33.52;37.55;;
64642;Laerm;59936;51.490;5.436;2022-07-29T00:27:03;35.52;33.48;37.56;;
64642;Laerm;59936;51.490;5.436;2022-07-29T00:27:09;35.88;33.45;38.66;;
64642;Laerm;59936;51.490;5.436;2022-07-29T00:27:14;35.37;33.45;37.13;;
64642;Laerm;59936;51.490;5.436;2022-07-29T00:27:19;35.32;33.67;36.64;;
64642;Laerm;59936;51.490;5.436;2022-07-29T00:27:25;35.06;33.77;36.43;;
64642;Laerm;59936;51.490;5.436;2022-07-29T00:27:30;35.53;33.39;37.93;;
64642;Laerm;59936;51.490;5.436;2022-07-29T00:27:36;36.45;34.22;38.30;;
64642;Laerm;59936;51.490;5.436;2022-07-29T00:27:41;37.11;34.85;39.26;;
64642;Laerm;59936;51.490;5.436;2022-07-29T00:27:47;35.59;33.87;37.73;;
64642;Laerm;59936;51.490;5.436;2022-07-29T00:27:52;35.75;34.15;37.10;;
64642;Laerm;59936;51.490;5.436;2022-07-29T00:27:57;35.68;33.98;37.29;;
64642;Laerm;59936;51.490;5.436;2022-07-29T00:28:03;35.85;33.72;37.36;;
64642;Laerm;59936;51.490;5.436;2022-07-29T00:28:08;37.38;34.51;39.72;;
64642;Laerm;59936;51.490;5.436;2022-07-29T00:28:14;37.54;35.89;39.28;;
64642;Laerm;59936;51.490;5.436;2022-07-29T00:28:19;36.68;34.41;38.06;;
64642;Laerm;59936;51.490;5.436;2022-07-29T00:28:24;35.80;34.16;37.17;;
64642;Laerm;59936;51.490;5.436;2022-07-29T00:28:30;35.73;34.13;37.88;;
64642;Laerm;59936;51.490;5.436;2022-07-29T00:28:35;36.63;34.30;38.71;;
64642;Laerm;59936;51.490;5.436;2022-07-29T00:28:40;35.83;33.79;37.85;;
64642;Laerm;59936;51.490;5.436;2022-07-29T00:28:46;35.32;33.91;36.80;;
64642;Laerm;59936;51.490;5.436;2022-07-29T00:28:51;35.92;33.96;37.81;;
64642;Laerm;59936;51.490;5.436;2022-07-29T00:28:59;36.44;33.83;45.32;;
64642;Laerm;59936;51.490;5.436;2022-07-29T00:29:04;36.51;34.15;38.67;;
64642;Laerm;59936;51.490;5.436;2022-07-29T00:29:10;36.87;34.99;39.00;;
64642;Laerm;59936;51.490;5.436;2022-07-29T00:29:16;36.10;34.59;38.10;;
64642;Laerm;59936;51.490;5.436;2022-07-29T00:29:21;35.86;33.88;37.79;;
64642;Laerm;59936;51.490;5.436;2022-07-29T00:29:27;35.87;34.08;37.96;;
64642;Laerm;59936;51.490;5.436;2022-07-29T00:29:32;35.41;33.32;37.17;;
64642;Laerm;59936;51.490;5.436;2022-07-29T00:29:38;36.48;34.50;38.24;;
64642;Laerm;59936;51.490;5.436;2022-07-29T00:29:43;36.35;33.40;38.12;;
64642;Laerm;59936;51.490;5.436;2022-07-29T00:29:49;35.60;33.79;37.61;;
64642;Laerm;59936;51.490;5.436;2022-07-29T00:29:54;35.53;33.64;37.20;;
64642;Laerm;59936;51.490;5.436;2022-07-29T00:30:00;35.42;33.87;36.97;;
64642;Laerm;59936;51.490;5.436;2022-07-29T00:30:06;36.18;34.58;38.00;;
64642;Laerm;59936;51.490;5.436;2022-07-29T00:30:12;35.89;34.12;38.04;;
64642;Laerm;59936;51.490;5.436;2022-07-29T00:30:18;36.01;34.34;37.43;;
64642;Laerm;59936;51.490;5.436;2022-07-29T00:30:23;36.33;34.70;37.80;;
64642;Laerm;59936;51.490;5.436;2022-07-29T00:30:28;35.66;33.80;37.96;;
64642;Laerm;59936;51.490;5.436;2022-07-29T00:30:34;35.76;33.92;37.48;;
64642;Laerm;59936;51.490;5.436;2022-07-29T00:30:39;36.70;35.11;38.69;;
64642;Laerm;59936;51.490;5.436;2022-07-29T00:30:47;36.98;34.32;39.46;;
64642;Laerm;59936;51.490;5.436;2022-07-29T00:30:52;37.60;35.18;40.84;;
64642;Laerm;59936;51.490;5.436;2022-07-29T00:30:57;35.99;34.24;38.17;;
64642;Laerm;59936;51.490;5.436;2022-07-29T00:31:03;36.41;34.15;38.42;;
64642;Laerm;59936;51.490;5.436;2022-07-29T00:31:08;39.88;34.79;50.59;;
64642;Laerm;59936;51.490;5.436;2022-07-29T00:31:14;36.67;34.89;38.64;;
64642;Laerm;59936;51.490;5.436;2022-07-29T00:31:20;37.05;35.10;38.92;;